Time;durP1;ratioP1;P1;durP2;ratioP2;P2;SDS_P1;SDS_P2;PMS_P1;PMS_P2;Temp;Humidity;BMP_temperature;BMP_pressure;BME280_temperature;BME280_humidity;BME280_pressure;Samples;Min_cycle;Max_cycle;Signal;HPM_P1;HPM_P2
2021/01/21 00:01:11;;;;;;;4.80;1.43;;;;;;;9.54;71.66;98524.47;5046474;28;20029;-76
2021/01/21 00:03:37;;;;;;;3.70;1.73;;;;;;;9.56;71.55;98520.19;5038167;28;20029;-78
2021/01/21 00:06:02;;;;;;;3.60;1.50;;;;;;;9.56;71.45;98500.53;5042950;28;20282;-77
2021/01/21 00:08:28;;;;;;;5.97;1.40;;;;;;;9.60;71.74;98511.59;5037086;28;20029;-77
2021/01/21 00:10:53;;;;;;;3.42;1.55;;;;;;;9.55;71.92;98495.41;5045657;28;20493;-77
2021/01/21 00:13:19;;;;;;;3.47;1.43;;;;;;;9.56;71.69;98487.72;5044489;28;20039;-77
2021/01/21 00:15:44;;;;;;;3.83;1.63;;;;;;;9.76;70.30;98466.16;5044665;28;20109;-77
2021/01/21 00:18:10;;;;;;;4.63;2.00;;;;;;;9.75;70.50;98479.81;5044076;28;20017;-78
2021/01/21 00:20:35;;;;;;;2.43;1.20;;;;;;;9.79;70.32;98459.28;5049402;28;20028;-77
2021/01/21 00:23:00;;;;;;;3.83;1.33;;;;;;;9.87;69.85;98439.50;5048692;28;20021;-79
2021/01/21 00:25:26;;;;;;;4.90;1.80;;;;;;;9.88;70.29;98450.63;5043253;28;20367;-77
2021/01/21 00:27:51;;;;;;;3.20;1.57;;;;;;;9.99;69.95;98441.06;5036983;28;20065;-76
2021/01/21 00:30:17;;;;;;;4.77;1.47;;;;;;;10.01;69.90;98425.66;5040968;28;20824;-77
2021/01/21 00:32:42;;;;;;;2.85;1.20;;;;;;;9.92;70.86;98418.94;5042770;28;20029;-76
2021/01/21 00:35:08;;;;;;;4.63;1.50;;;;;;;9.79;73.17;98425.09;5049736;28;20021;-76
2021/01/21 00:37:33;;;;;;;4.90;1.27;;;;;;;9.71;75.47;98420.03;5050391;28;20264;-81
2021/01/21 00:39:59;;;;;;;6.72;1.75;;;;;;;9.47;76.82;98407.53;5046232;28;20124;-81
2021/01/21 00:42:24;;;;;;;5.40;1.73;;;;;;;9.33;78.76;98399.97;5052069;28;20040;-79
2021/01/21 00:44:49;;;;;;;7.30;1.73;;;;;;;9.21;79.49;98394.97;5043521;28;20525;-79
2021/01/21 00:47:15;;;;;;;6.13;1.50;;;;;;;9.06;80.96;98406.19;5046085;28;20122;-79
2021/01/21 00:49:40;;;;;;;5.43;1.98;;;;;;;8.96;82.16;98381.56;5038821;28;20029;-80
2021/01/21 00:52:06;;;;;;;7.60;2.00;;;;;;;8.86;82.87;98385.06;5049943;28;20029;-79
2021/01/21 00:54:31;;;;;;;5.10;1.83;;;;;;;8.79;83.77;98360.41;5052028;28;20374;-80
2021/01/21 00:56:57;;;;;;;5.38;2.28;;;;;;;8.81;83.44;98359.53;5049781;28;20040;-79
2021/01/21 00:59:23;;;;;;;6.57;2.10;;;;;;;8.76;83.19;98334.78;5044612;28;20027;-79
2021/01/21 01:01:48;;;;;;;5.20;2.05;;;;;;;8.74;83.59;98348.47;5044382;28;20025;-79
2021/01/21 01:04:13;;;;;;;6.15;1.48;;;;;;;8.83;82.84;98333.91;5043319;28;20399;-80
2021/01/21 01:06:39;;;;;;;8.57;2.05;;;;;;;8.86;82.74;98318.50;5051803;28;20059;-80
2021/01/21 01:09:04;;;;;;;4.43;1.60;;;;;;;8.90;81.85;98302.25;5051611;28;20025;-80
2021/01/21 01:11:29;;;;;;;4.85;1.73;;;;;;;8.94;81.96;98303.91;5053702;28;20343;-79
2021/01/21 01:13:55;;;;;;;5.23;2.20;;;;;;;8.90;82.24;98297.97;5043459;28;20029;-79
2021/01/21 01:16:20;;;;;;;6.23;1.80;;;;;;;8.93;81.89;98297.09;5043764;28;20017;-80
2021/01/21 01:18:46;;;;;;;5.15;1.75;;;;;;;8.94;81.46;98298.78;5048616;28;20025;-79
2021/01/21 01:21:11;;;;;;;5.15;1.88;;;;;;;8.90;81.77;98303.09;5039635;28;20037;-79
2021/01/21 01:23:37;;;;;;;3.72;1.63;;;;;;;8.99;81.45;98294.47;5038800;28;20049;-80
2021/01/21 01:26:02;;;;;;;5.85;1.50;;;;;;;9.09;79.82;98298.59;5040641;28;20543;-80
2021/01/21 01:28:28;;;;;;;3.13;1.70;;;;;;;9.14;79.55;98291.75;5040467;28;20037;-81
2021/01/21 01:30:56;;;;;;;3.38;1.52;;;;;;;9.42;78.72;98284.53;5045655;28;20159;-81
2021/01/21 01:33:21;;;;;;;8.60;1.70;;;;;;;9.38;79.06;98259.00;5044101;28;20030;-81
2021/01/21 01:35:46;;;;;;;8.80;1.70;;;;;;;9.30;80.41;98277.88;5042175;28;20509;-81
2021/01/21 01:38:13;;;;;;;4.60;1.75;;;;;;;9.26;80.47;98276.22;5045105;28;20025;-80
2021/01/21 01:40:39;;;;;;;3.67;1.33;;;;;;;9.27;80.21;98249.75;5036212;28;20439;-79
2021/01/21 01:43:04;;;;;;;4.68;1.80;;;;;;;9.38;79.40;98259.00;5039203;28;20036;-80
2021/01/21 01:45:30;;;;;;;4.25;1.50;;;;;;;9.38;78.82;98252.16;5048848;28;20032;-80
2021/01/21 01:47:56;;;;;;;4.40;1.38;;;;;;;9.33;78.99;98236.84;5047834;28;20094;-80
2021/01/21 01:50:24;;;;;;;4.03;1.30;;;;;;;9.45;78.46;98224.75;5049158;28;20053;-81
2021/01/21 01:52:51;;;;;;;2.67;1.30;;;;;;;9.61;76.81;98214.25;5039887;28;20028;-79
2021/01/21 01:55:18;;;;;;;3.37;1.40;;;;;;;9.60;77.12;98217.69;5051423;28;20032;-81
2021/01/21 01:57:44;;;;;;;;;;;;;;;9.65;76.97;98218.47;5041930;28;20021;-80
2021/01/21 02:00:11;;;;;;;3.67;1.10;;;;;;;9.71;76.70;98227.75;5049381;28;20003;-80
2021/01/21 02:02:36;;;;;;;4.87;1.30;;;;;;;9.70;76.84;98225.22;5048430;28;20067;-79
2021/01/21 02:05:03;;;;;;;3.92;1.35;;;;;;;9.76;76.52;98215.75;5050028;28;20024;-79
2021/01/21 02:07:29;;;;;;;3.10;1.10;;;;;;;9.65;77.27;98208.19;5051495;28;20029;-79
2021/01/21 02:09:56;;;;;;;4.82;1.17;;;;;;;9.71;76.58;98202.13;5045055;28;20025;-80
2021/01/21 02:12:47;;;;;;;4.20;1.07;;;;;;;9.71;76.55;98173.09;5043439;28;20111;-81
2021/01/21 02:15:41;;;;;;;6.37;1.20;;;;;;;9.70;76.85;98182.50;5047658;28;20075;-80
2021/01/21 02:18:33;;;;;;;3.13;1.30;;;;;;;9.80;75.96;98178.09;5050637;28;20479;-79
2021/01/21 02:21:19;;;;;;;2.20;1.00;;;;;;;9.74;76.67;98186.69;5047682;28;20132;-79
2021/01/21 02:24:22;;;;;;;3.97;1.17;;;;;;;9.73;77.00;98174.75;5043969;28;20420;-79
2021/01/21 02:26:54;;;;;;;5.93;1.43;;;;;;;9.73;76.95;98149.13;5045557;28;20025;-79
2021/01/21 02:29:29;;;;;;;6.30;1.13;;;;;;;9.75;77.61;98156.78;5040454;28;20029;-79
2021/01/21 02:32:09;;;;;;;4.75;1.58;;;;;;;9.74;77.73;98161.06;5048232;28;20021;-80
2021/01/21 02:34:56;;;;;;;5.13;1.60;;;;;;;9.74;77.94;98150.81;5047263;28;20025;-79
2021/01/21 02:37:30;;;;;;;2.88;1.10;;;;;;;9.71;78.36;98150.88;5040093;28;20017;-78
2021/01/21 02:39:57;;;;;;;5.70;1.27;;;;;;;9.65;78.71;98150.97;5046657;28;20034;-79
2021/01/21 02:42:23;;;;;;;2.50;1.30;;;;;;;9.69;78.58;98157.72;5040148;28;20028;-79
2021/01/21 02:44:49;;;;;;;;;;;;;;;9.69;78.58;98132.09;5048485;28;20029;-79
2021/01/21 02:47:16;;;;;;;3.77;1.23;;;;;;;9.67;78.93;98149.22;5047818;28;19940;-79
2021/01/21 02:49:42;;;;;;;3.77;1.33;;;;;;;9.78;78.57;98143.94;5040485;28;20036;-79
2021/01/21 02:52:32;;;;;;;4.15;1.15;;;;;;;9.67;80.46;98149.22;5041943;28;20029;-79
2021/01/21 02:55:17;;;;;;;4.53;1.63;;;;;;;9.57;81.20;98137.44;5049522;28;20494;-81
2021/01/21 02:58:07;;;;;;;2.87;1.50;;;;;;;9.53;82.45;98130.66;5041145;28;20025;-79
2021/01/21 03:00:38;;;;;;;6.50;1.60;;;;;;;9.38;83.53;98147.09;5033464;28;20049;-78
2021/01/21 03:03:11;;;;;;;3.60;1.50;;;;;;;9.35;83.50;98129.22;5040496;28;20039;-79
2021/01/21 03:05:37;;;;;;;3.10;1.37;;;;;;;9.28;84.26;98132.75;5043668;28;20110;-80
2021/01/21 03:08:03;;;;;;;4.45;1.52;;;;;;;9.19;85.19;98120.09;5033929;28;20033;-79
2021/01/21 03:10:29;;;;;;;;;;;;;;;9.14;86.14;98127.00;5045413;28;20120;-79
2021/01/21 03:12:56;;;;;;;7.37;1.87;;;;;;;9.09;86.85;98137.28;5046113;28;19944;-80
2021/01/21 03:15:22;;;;;;;4.27;1.77;;;;;;;9.08;86.94;98133.03;5045237;28;20027;-80
2021/01/21 03:17:49;;;;;;;3.70;1.70;;;;;;;9.02;87.48;98248.34;5046799;28;20060;-80
2021/01/21 03:20:15;;;;;;;11.17;1.53;;;;;;;7.76;81.50;98383.19;5048446;28;20021;-79
2021/01/21 03:22:40;;;;;;;9.93;2.13;;;;;;;6.55;84.62;98386.03;5047535;28;20119;-78
2021/01/21 03:25:06;;;;;;;7.70;1.05;;;;;;;5.87;87.70;98379.13;5048373;28;20029;-79
2021/01/21 03:27:31;;;;;;;5.82;0.93;;;;;;;5.66;89.22;98368.00;5050603;28;20475;-79
2021/01/21 03:30:01;;;;;;;9.67;1.27;;;;;;;5.66;88.58;98355.28;5047302;28;20020;-79
2021/01/21 03:32:27;;;;;;;10.63;1.53;;;;;;;5.70;88.63;98345.09;5046313;28;20028;-79
2021/01/21 03:34:52;;;;;;;7.30;2.22;;;;;;;5.71;88.56;98340.84;5046421;28;20055;-79
2021/01/21 03:37:18;;;;;;;9.57;1.88;;;;;;;5.77;88.53;98361.22;5042364;28;20080;-80
2021/01/21 03:39:44;;;;;;;14.02;1.40;;;;;;;5.93;88.11;98363.03;5038855;28;20025;-79
2021/01/21 03:42:09;;;;;;;10.15;1.55;;;;;;;6.00;87.07;98372.38;5045310;28;20024;-80
2021/01/21 03:44:35;;;;;;;16.33;1.30;;;;;;;6.07;86.41;98375.78;5053176;28;20025;-80
2021/01/21 03:47:00;;;;;;;10.65;1.25;;;;;;;6.15;86.68;98374.94;5043547;28;20040;-79
2021/01/21 03:49:26;;;;;;;12.45;1.92;;;;;;;6.24;86.23;98389.41;5047609;28;20036;-79
2021/01/21 03:51:51;;;;;;;17.90;1.73;;;;;;;6.35;85.10;98382.63;5046174;28;20486;-80
2021/01/21 03:54:17;;;;;;;10.30;1.47;;;;;;;6.35;85.40;98397.06;5045312;28;20021;-81
2021/01/21 03:56:42;;;;;;;11.50;1.63;;;;;;;6.34;85.21;98413.22;5045031;28;20268;-80
2021/01/21 03:59:07;;;;;;;11.70;1.48;;;;;;;6.42;84.22;98419.16;5049200;28;20020;-79
2021/01/21 04:01:33;;;;;;;17.80;1.83;;;;;;;6.40;83.47;98406.41;5043830;28;20124;-80
2021/01/21 04:03:58;;;;;;;12.48;1.75;;;;;;;6.40;84.00;98429.38;5052595;28;20032;-79
2021/01/21 04:06:26;;;;;;;14.53;1.73;;;;;;;6.38;83.29;98423.41;5048581;28;20398;-80
2021/01/21 04:08:52;;;;;;;10.23;2.43;;;;;;;6.45;83.83;98442.13;5051211;28;20701;-80
2021/01/21 04:11:17;;;;;;;11.82;2.05;;;;;;;6.49;83.87;98484.63;5044819;28;20048;-79
2021/01/21 04:13:43;;;;;;;15.95;1.70;;;;;;;6.51;83.05;98462.56;5047341;28;20402;-81
2021/01/21 04:16:08;;;;;;;11.18;2.00;;;;;;;6.51;82.05;98460.88;5041997;28;20392;-79
2021/01/21 04:18:34;;;;;;;12.57;1.87;;;;;;;6.60;81.94;98465.13;5052548;28;20099;-79
2021/01/21 04:20:59;;;;;;;18.38;2.45;;;;;;;6.49;83.11;98461.69;5048920;28;20792;-79
2021/01/21 04:23:25;;;;;;;12.20;1.70;;;;;;;6.47;82.76;98486.34;5041839;28;20033;-79
2021/01/21 04:26:00;;;;;;;23.20;2.45;;;;;;;6.54;82.09;98505.94;5043910;28;20485;-79
2021/01/21 04:28:26;;;;;;;16.23;3.20;;;;;;;6.55;82.57;98492.31;5044354;28;20032;-81
2021/01/21 04:30:51;;;;;;;14.43;2.47;;;;;;;6.53;82.04;98494.03;5050182;28;20025;-79
2021/01/21 04:33:17;;;;;;;22.45;2.75;;;;;;;6.51;81.95;98485.50;5050739;28;20037;-79
2021/01/21 04:35:54;;;;;;;17.92;2.97;;;;;;;6.51;82.04;98501.66;5053210;28;20045;-80
2021/01/21 04:38:27;;;;;;;21.07;3.20;;;;;;;6.50;81.53;98499.09;5041269;28;20426;-80
2021/01/21 04:40:57;;;;;;;17.40;2.53;;;;;;;6.51;81.83;98539.06;5046676;28;20041;-80
2021/01/21 04:43:23;;;;;;;29.07;3.20;;;;;;;6.50;80.87;98532.25;5045770;28;20055;-80
2021/01/21 04:45:48;;;;;;;23.80;2.95;;;;;;;6.41;81.20;98556.03;5073984;22;20021;-77
2021/01/21 04:48:14;;;;;;;14.87;2.47;;;;;;;6.39;80.82;98575.56;5044023;28;20071;-79
2021/01/21 04:50:40;;;;;;;15.45;2.50;;;;;;;6.39;80.42;98592.56;5043249;28;20099;-77
2021/01/21 04:53:07;;;;;;;17.10;3.07;;;;;;;6.33;80.35;98593.41;5043820;28;20410;-79
2021/01/21 04:55:38;;;;;;;18.63;2.40;;;;;;;6.31;79.18;98599.34;5046414;28;20045;-76
2021/01/21 04:58:16;;;;;;;15.83;2.23;;;;;;;6.14;79.26;98606.88;5039249;28;20471;-78
2021/01/21 05:00:43;;;;;;;26.43;3.10;;;;;;;6.08;80.44;98617.91;5046873;28;20106;-78
2021/01/21 05:03:09;;;;;;;19.73;2.60;;;;;;;6.05;80.44;98617.03;5054279;28;20021;-77
2021/01/21 05:05:35;;;;;;;17.30;2.65;;;;;;;5.97;80.43;98611.91;5044036;28;20037;-79
2021/01/21 05:08:01;;;;;;;20.83;2.90;;;;;;;6.02;80.65;98637.41;5051886;28;20112;-77
2021/01/21 05:10:27;;;;;;;;;;;;;;;5.97;80.62;98639.94;5036610;28;20032;-78
2021/01/21 05:12:52;;;;;;;29.93;3.47;;;;;;;5.92;81.56;98631.41;5046867;28;20408;-78
2021/01/21 05:15:18;;;;;;;19.90;2.17;;;;;;;5.92;81.59;98646.69;5050734;28;20056;-78
2021/01/21 05:17:43;;;;;;;10.53;2.23;;;;;;;5.88;81.31;98653.44;5036375;28;20347;-79
2021/01/21 05:20:09;;;;;;;13.55;2.22;;;;;;;5.83;81.16;98672.06;5049716;28;20029;-75
2021/01/21 05:22:35;;;;;;;23.37;3.13;;;;;;;5.89;80.05;98690.84;5042755;28;20473;-78
2021/01/21 05:25:01;;;;;;;15.80;2.13;;;;;;;5.83;80.73;98695.00;5047468;28;20116;-79
2021/01/21 05:27:26;;;;;;;12.10;1.98;;;;;;;5.84;78.43;98671.22;5044310;28;20095;-77
2021/01/21 05:29:51;;;;;;;9.68;1.65;;;;;;;5.84;80.01;98687.34;5032198;28;20029;-78
2021/01/21 05:32:18;;;;;;;16.55;2.40;;;;;;;5.83;79.22;98689.88;5040891;28;20488;-78
2021/01/21 05:34:44;;;;;;;15.90;2.53;;;;;;;5.86;79.18;98705.22;5046015;28;20021;-78
2021/01/21 05:37:10;;;;;;;;;;;;;;;5.80;79.75;98700.06;5038334;28;20009;-77
2021/01/21 05:39:44;;;;;;;21.60;2.13;;;;;;;5.79;79.75;98717.03;5043683;28;20263;-78
2021/01/21 05:42:10;;;;;;;8.73;2.03;;;;;;;5.70;79.30;98727.16;5037079;28;20104;-77
2021/01/21 05:44:36;;;;;;;11.82;1.65;;;;;;;5.66;77.37;98729.66;5051679;28;20024;-77
2021/01/21 05:47:09;;;;;;;15.38;2.10;;;;;;;5.49;78.40;98748.16;5042680;28;20399;-78
2021/01/21 05:49:35;;;;;;;7.53;1.27;;;;;;;5.35;78.09;98759.91;5033003;28;20091;-77
2021/01/21 05:52:00;;;;;;;7.32;1.50;;;;;;;5.25;78.60;98768.28;5036646;28;20060;-77
2021/01/21 05:54:30;;;;;;;7.10;1.30;;;;;;;5.19;77.59;98753.78;5030994;28;20025;-77
2021/01/21 05:56:57;;;;;;;8.93;1.37;;;;;;;5.23;76.83;98764.88;5032875;28;20021;-76
2021/01/21 05:59:27;;;;;;;7.97;1.50;;;;;;;5.18;78.55;98789.41;5032804;28;20024;-78
2021/01/21 06:01:53;;;;;;;8.03;1.60;;;;;;;5.15;78.78;98805.50;5044683;28;20055;-78
2021/01/21 06:04:24;;;;;;;12.57;1.67;;;;;;;5.05;78.96;98797.72;5037606;28;20044;-77
2021/01/21 06:06:51;;;;;;;14.53;1.93;;;;;;;5.13;79.13;98812.25;5033309;28;20029;-77
2021/01/21 06:09:24;;;;;;;16.13;1.77;;;;;;;5.12;80.42;98820.72;5036361;28;20032;-78
2021/01/21 06:11:50;;;;;;;10.30;1.73;;;;;;;5.11;80.06;98821.56;5036687;28;20032;-77
2021/01/21 06:14:16;;;;;;;;;;;;;;;5.04;80.68;98819.78;5048862;28;20055;-77
2021/01/21 06:16:41;;;;;;;9.83;1.57;;;;;;;5.08;80.81;98823.22;5045134;28;19912;-77
2021/01/21 06:19:07;;;;;;;13.80;2.10;;;;;;;5.05;80.07;98829.13;5044100;28;20040;-77
2021/01/21 06:21:36;;;;;;;13.02;1.77;;;;;;;5.06;79.92;98838.47;5048229;28;20032;-77
2021/01/21 06:24:05;;;;;;;11.93;1.40;;;;;;;5.04;79.19;98849.47;5037723;28;20445;-77
2021/01/21 06:26:42;;;;;;;14.43;1.73;;;;;;;4.97;79.29;98854.47;5051351;28;20033;-77
2021/01/21 06:29:10;;;;;;;11.83;1.40;;;;;;;4.96;78.54;98862.94;5041503;28;20193;-76
2021/01/21 06:31:36;;;;;;;5.00;1.33;;;;;;;4.92;78.93;98863.72;5030978;28;20029;-78
2021/01/21 06:34:03;;;;;;;6.55;1.20;;;;;;;4.88;78.58;98879.78;5031553;28;20021;-77
2021/01/21 06:36:29;;;;;;;12.23;2.10;;;;;;;4.85;77.89;98879.72;5044092;28;20044;-77
2021/01/21 06:39:00;;;;;;;12.27;1.57;;;;;;;4.72;79.07;98888.00;5033783;28;20021;-76
2021/01/21 06:41:28;;;;;;;14.13;1.80;;;;;;;4.68;78.74;98891.34;5039186;28;20166;-79
2021/01/21 06:43:54;;;;;;;12.57;2.13;;;;;;;4.64;79.64;98903.16;5032923;28;20033;-79
2021/01/21 06:46:20;;;;;;;9.48;1.95;;;;;;;4.59;79.48;98901.38;5032301;28;20100;-77
2021/01/21 06:48:49;;;;;;;9.50;1.53;;;;;;;4.48;79.76;98907.94;5031390;28;20036;-78
2021/01/21 06:51:16;;;;;;;9.57;2.00;;;;;;;4.47;80.50;98911.31;5030907;28;20024;-77
2021/01/21 06:53:44;;;;;;;13.73;1.90;;;;;;;4.31;80.20;98926.31;5032552;28;20064;-78
2021/01/21 06:56:10;;;;;;;12.67;2.10;;;;;;;4.23;80.95;98925.34;5032415;28;20118;-77
2021/01/21 06:58:49;;;;;;;;;;;;;;;4.28;80.69;98931.34;5034345;28;20025;-78
2021/01/21 07:01:40;;;;;;;8.93;2.07;;;;;;;4.23;80.37;98939.72;5031423;28;19920;-77
2021/01/21 07:04:09;;;;;;;13.93;2.20;;;;;;;4.25;79.74;98931.31;5031938;28;20108;-79
2021/01/21 07:06:49;;;;;;;10.77;2.00;;;;;;;4.28;79.88;98941.53;5042702;28;20025;-78
2021/01/21 07:09:16;;;;;;;12.47;2.43;;;;;;;4.20;79.96;98953.19;5037410;28;20017;-77
2021/01/21 07:11:43;;;;;;;9.40;1.70;;;;;;;4.24;79.70;98955.00;5049530;28;20040;-78
2021/01/21 07:14:10;;;;;;;10.07;1.73;;;;;;;4.20;79.52;98939.63;5046131;28;20060;-78
2021/01/21 07:16:35;;;;;;;10.80;1.60;;;;;;;4.20;79.37;98963.38;5051273;28;20021;-77
2021/01/21 07:19:02;;;;;;;11.43;2.17;;;;;;;4.25;79.19;98960.94;5049551;28;20032;-80
2021/01/21 07:21:30;;;;;;;7.50;1.60;;;;;;;4.24;79.47;98971.94;5046079;28;20212;-80
2021/01/21 07:23:57;;;;;;;14.90;2.30;;;;;;;4.18;78.92;98977.72;5045205;28;20021;-77
2021/01/21 07:26:27;;;;;;;14.03;2.07;;;;;;;4.22;80.03;98971.03;5052291;28;20086;-78
2021/01/21 07:28:58;;;;;;;10.00;1.70;;;;;;;4.12;79.93;98990.31;5052559;28;20130;-78
2021/01/21 07:31:23;;;;;;;9.03;2.10;;;;;;;4.13;80.33;98999.66;5050223;28;20029;-78
2021/01/21 07:33:49;;;;;;;7.88;1.85;;;;;;;4.10;80.31;98997.06;5054234;28;20063;-79
2021/01/21 07:36:30;;;;;;;14.30;1.92;;;;;;;4.07;80.83;98990.25;5046425;28;20029;-79
2021/01/21 07:38:55;;;;;;;14.37;2.20;;;;;;;4.14;80.26;98991.22;5050808;28;20495;-79
2021/01/21 07:41:51;;;;;;;10.05;1.98;;;;;;;4.16;80.56;98999.72;5044792;28;20029;-79
2021/01/21 07:44:17;;;;;;;9.53;1.90;;;;;;;4.18;81.00;99010.78;5038876;28;20115;-76
2021/01/21 07:46:42;;;;;;;14.30;2.38;;;;;;;4.37;80.14;99001.81;5042747;28;20116;-78
2021/01/21 07:49:25;;;;;;;13.07;1.92;;;;;;;4.32;81.09;98998.34;5041655;28;20021;-77
2021/01/21 07:52:08;;;;;;;14.23;3.10;;;;;;;4.34;80.92;99012.78;5051465;28;20525;-77
2021/01/21 07:54:52;;;;;;;9.73;2.40;;;;;;;4.47;81.41;99007.94;5052791;28;20056;-79
2021/01/21 07:57:21;;;;;;;8.60;1.73;;;;;;;4.48;82.09;99014.72;5036320;28;20025;-78
2021/01/21 08:00:08;;;;;;;18.53;3.00;;;;;;;4.37;82.42;99015.38;5052926;28;20036;-79
2021/01/21 08:02:46;;;;;;;;;;;;;;;4.30;82.85;99016.09;5041803;28;20492;-79
2021/01/21 08:05:17;;;;;;;13.50;2.47;;;;;;;4.40;82.79;99023.91;5043632;28;19939;-79
2021/01/21 08:07:50;;;;;;;10.43;2.27;;;;;;;4.41;82.35;99023.06;5050328;28;20368;-79
2021/01/21 08:10:19;;;;;;;11.97;1.90;;;;;;;4.37;82.56;99015.38;5045880;28;20033;-78
2021/01/21 08:12:55;;;;;;;14.67;1.90;;;;;;;4.31;82.97;99015.28;5042577;28;20032;-78
2021/01/21 08:15:22;;;;;;;;;;;;;;;4.47;82.10;99018.09;5050527;28;20029;-80
2021/01/21 08:17:49;;;;;;;9.47;2.33;;;;;;;4.42;81.14;99015.47;5049235;28;19924;-80
2021/01/21 08:20:16;;;;;;;12.83;2.23;;;;;;;4.53;81.09;99015.66;5055373;28;20071;-81
2021/01/21 08:23:01;;;;;;;8.57;2.00;;;;;;;4.49;81.46;99013.91;5052999;28;20536;-80
2021/01/21 08:25:32;;;;;;;13.90;2.80;;;;;;;4.59;80.82;99023.44;5052407;28;20033;-80
2021/01/21 08:27:57;;;;;;;20.10;2.97;;;;;;;4.66;80.26;99028.63;5047301;28;20035;-78
2021/01/21 08:30:25;;;;;;;13.18;1.90;;;;;;;4.69;80.54;99015.13;5052334;28;20029;-82
2021/01/21 08:33:03;;;;;;;10.03;2.03;;;;;;;4.82;80.10;99034.00;5045667;28;20172;-82
2021/01/21 08:35:31;;;;;;;10.03;1.77;;;;;;;4.89;80.03;99021.41;5047062;28;20032;-84
2021/01/21 08:37:58;;;;;;;17.50;1.90;;;;;;;4.92;79.81;99034.19;5041581;28;20021;-81
2021/01/21 08:40:24;;;;;;;10.83;2.03;;;;;;;4.93;80.24;99029.97;5051684;28;20038;-79
2021/01/21 08:42:52;;;;;;;16.43;2.20;;;;;;;4.92;80.14;99021.47;5050093;28;20487;-79
2021/01/21 08:45:19;;;;;;;14.63;2.40;;;;;;;5.00;80.41;99014.81;5045397;28;20052;-82
2021/01/21 08:47:49;;;;;;;10.83;1.90;;;;;;;5.10;78.87;99014.94;5048259;28;20059;-80
2021/01/21 08:50:17;;;;;;;12.23;1.80;;;;;;;5.20;79.23;99014.25;5046216;28;20026;-79
2021/01/21 08:53:02;;;;;;;15.17;2.47;;;;;;;5.19;79.17;99022.72;5042543;28;20027;-78
2021/01/21 08:55:45;;;;;;;8.17;1.47;;;;;;;5.31;78.31;99017.84;5044597;28;20399;-80
2021/01/21 08:58:13;;;;;;;15.23;2.87;;;;;;;5.36;78.31;99023.84;5045058;28;20028;-80
2021/01/21 09:00:57;;;;;;;9.93;2.57;;;;;;;5.39;78.81;99026.44;5045257;28;20095;-81
2021/01/21 09:03:47;;;;;;;13.73;2.20;;;;;;;5.44;78.96;99035.00;5031785;28;20025;-83
2021/01/21 09:06:15;;;;;;;10.93;2.30;;;;;;;5.55;78.77;99030.94;5041635;28;20053;-78
2021/01/21 09:08:57;;;;;;;9.53;2.00;;;;;;;5.81;78.74;99031.28;5040870;28;20032;-80
2021/01/21 09:11:33;;;;;;;19.43;2.17;;;;;;;5.90;77.92;99031.47;5049351;28;20027;-80
2021/01/21 09:14:00;;;;;;;11.63;1.77;;;;;;;5.97;78.13;99042.59;5052702;28;20510;-80
2021/01/21 09:16:41;;;;;;;12.57;1.80;;;;;;;5.90;80.15;99056.09;5045391;28;20021;-80
2021/01/21 09:19:07;;;;;;;11.17;2.77;;;;;;;5.76;80.53;99066.03;5048501;28;20029;-81
2021/01/21 09:21:32;;;;;;;14.45;2.00;;;;;;;5.71;81.51;99069.38;5053632;28;20033;-78
2021/01/21 09:24:09;;;;;;;21.00;2.93;;;;;;;5.84;80.50;99063.59;5053698;28;20029;-80
2021/01/21 09:26:34;;;;;;;7.70;1.83;;;;;;;5.97;81.16;99067.22;5052350;28;20286;-79
2021/01/21 09:29:00;;;;;;;13.65;2.22;;;;;;;5.91;80.91;99058.66;5051599;28;20033;-84
2021/01/21 09:31:30;;;;;;;13.80;2.30;;;;;;;5.95;80.17;99061.25;5053170;28;20182;-82
2021/01/21 09:33:56;;;;;;;7.20;1.90;;;;;;;6.06;80.18;99064.78;5057560;28;20040;-80
2021/01/21 09:36:29;;;;;;;18.70;3.05;;;;;;;6.32;79.45;99058.31;5052299;28;20025;-82
2021/01/21 09:38:56;;;;;;;13.90;1.97;;;;;;;6.78;78.20;99036.69;5046158;28;20021;-81
2021/01/21 09:41:21;;;;;;;18.57;1.97;;;;;;;7.34;76.31;99056.78;5046770;28;20081;-81
2021/01/21 09:43:47;;;;;;;10.73;1.40;;;;;;;7.97;74.30;99049.53;5051619;28;20040;-79
2021/01/21 09:46:12;;;;;;;6.22;1.70;;;;;;;8.57;71.30;99046.41;5052508;28;20025;-80
2021/01/21 09:48:37;;;;;;;11.18;1.88;;;;;;;8.67;71.04;99058.38;5056510;28;20112;-80
2021/01/21 09:51:03;;;;;;;14.90;2.20;;;;;;;9.13;71.08;99037.97;5054375;28;20025;-80
2021/01/21 09:53:28;;;;;;;8.63;1.55;;;;;;;9.58;68.45;99041.34;5052870;28;20090;-81
2021/01/21 09:55:57;;;;;;;13.90;1.90;;;;;;;9.91;66.72;99035.31;5050959;28;20017;-80
2021/01/21 09:58:23;;;;;;;11.80;1.80;;;;;;;10.16;65.38;99036.94;5054626;28;20070;-82
2021/01/21 10:00:49;;;;;;;9.98;1.67;;;;;;;10.31;64.27;99036.03;5050816;28;20029;-82
2021/01/21 10:03:14;;;;;;;12.27;1.73;;;;;;;10.10;65.52;99033.56;5048402;28;20032;-78
2021/01/21 10:05:39;;;;;;;14.45;1.75;;;;;;;10.08;65.57;99043.81;5049637;28;20048;-80
2021/01/21 10:08:05;;;;;;;13.23;2.33;;;;;;;9.56;67.88;99058.44;5044635;28;20059;-80
2021/01/21 10:10:30;;;;;;;12.38;1.60;;;;;;;9.80;68.66;99042.19;5054406;28;20041;-81
2021/01/21 10:12:55;;;;;;;9.25;1.65;;;;;;;10.20;66.97;99048.94;5048290;28;20025;-81
2021/01/21 10:15:21;;;;;;;9.95;1.65;;;;;;;10.40;67.34;99053.09;5051150;28;20025;-80
2021/01/21 10:17:47;;;;;;;10.27;1.58;;;;;;;10.70;62.99;99052.09;5054445;28;20020;-82
2021/01/21 10:20:13;;;;;;;12.65;1.58;;;;;;;10.31;63.89;99058.28;5048947;28;20089;-80
2021/01/21 10:22:38;;;;;;;11.70;1.50;;;;;;;10.67;65.55;99070.09;5040086;28;20040;-80
2021/01/21 10:25:04;;;;;;;7.35;1.35;;;;;;;10.52;64.79;99077.03;5050935;28;20025;-81
2021/01/21 10:27:29;;;;;;;7.07;1.63;;;;;;;10.17;65.01;99068.59;5048599;28;20047;-83
2021/01/21 10:29:55;;;;;;;9.90;1.73;;;;;;;9.57;66.69;99053.31;5050670;28;20056;-82
2021/01/21 10:32:20;;;;;;;15.35;2.85;;;;;;;9.11;67.83;99067.84;5052009;28;20029;-80
2021/01/21 10:34:45;;;;;;;11.33;1.83;;;;;;;8.70;69.66;99076.28;5047569;28;20021;-82
2021/01/21 10:37:11;;;;;;;12.60;1.48;;;;;;;8.80;69.57;99079.75;5049764;28;20041;-82
2021/01/21 10:39:36;;;;;;;15.30;1.98;;;;;;;8.50;70.05;99088.19;5044585;28;20021;-82
2021/01/21 10:42:01;;;;;;;10.65;1.58;;;;;;;8.38;70.82;99078.75;5052029;28;20075;-80
2021/01/21 10:44:27;;;;;;;7.03;1.50;;;;;;;8.21;71.10;99074.38;5055954;28;20051;-81
2021/01/21 10:46:52;;;;;;;6.97;1.30;;;;;;;7.87;72.41;99076.75;5069650;23;20064;-78
2021/01/21 10:49:17;;;;;;;7.75;1.70;;;;;;;7.94;74.24;99081.06;5083313;28;20296;-81
2021/01/21 10:51:43;;;;;;;12.82;1.77;;;;;;;7.98;72.81;99064.88;5090911;28;20027;-79
2021/01/21 10:54:08;;;;;;;9.93;1.98;;;;;;;8.21;73.85;99072.69;5088194;28;20024;-77
2021/01/21 10:56:33;;;;;;;6.43;1.38;;;;;;;8.29;72.27;99085.50;5083397;28;20028;-80
2021/01/21 10:59:01;;;;;;;6.80;1.60;;;;;;;8.18;71.63;99066.69;5074998;28;20099;-80
2021/01/21 11:01:26;;;;;;;8.60;1.40;;;;;;;8.08;72.60;99071.75;5073396;28;20283;-79
2021/01/21 11:03:51;;;;;;;10.10;1.97;;;;;;;7.68;73.37;99074.91;5073695;28;20046;-79
2021/01/21 11:06:17;;;;;;;7.00;1.43;;;;;;;7.64;74.07;99062.97;5074685;28;20104;-78
2021/01/21 11:08:42;;;;;;;11.47;2.40;;;;;;;7.46;74.69;99067.09;5072533;28;20323;-80
2021/01/21 11:11:07;;;;;;;8.90;1.75;;;;;;;7.45;75.08;99065.38;5072855;28;20040;-81
2021/01/21 11:13:33;;;;;;;10.93;2.33;;;;;;;7.24;75.35;99067.78;5072114;28;20492;-78
2021/01/21 11:15:59;;;;;;;10.73;1.77;;;;;;;7.16;75.87;99069.41;5072268;28;20275;-79
2021/01/21 11:18:24;;;;;;;;;;;;;;;7.10;75.99;99059.97;5071751;28;20017;-80
2021/01/21 11:20:49;;;;;;;6.90;1.50;;;;;;;6.96;76.53;99068.38;5072101;28;19919;-81
2021/01/21 11:23:15;;;;;;;8.50;1.63;;;;;;;6.97;77.10;99057.31;5073460;28;20028;-78
2021/01/21 11:25:40;;;;;;;13.83;2.20;;;;;;;7.05;76.58;99060.78;5071547;28;20270;-79
2021/01/21 11:28:06;;;;;;;6.03;2.20;;;;;;;8.16;74.33;99064.13;5071296;28;20059;-80
2021/01/21 11:30:31;;;;;;;11.40;1.90;;;;;;;8.81;71.54;99066.09;5071552;28;20111;-79
2021/01/21 11:32:58;;;;;;;16.30;2.10;;;;;;;9.26;68.78;99046.50;5073803;28;20474;-79
2021/01/21 11:35:26;;;;;;;14.10;1.60;;;;;;;9.63;67.85;99060.16;5073527;28;20478;-78
2021/01/21 11:37:53;;;;;;;12.37;2.10;;;;;;;10.27;65.27;99042.91;5072280;28;20474;-77
2021/01/21 11:40:18;;;;;;;11.50;1.83;;;;;;;10.01;64.79;99051.50;5074934;28;20555;-78
2021/01/21 11:42:44;;;;;;;11.52;1.98;;;;;;;8.83;67.90;99054.16;5075412;28;20028;-79
2021/01/21 11:45:09;;;;;;;9.95;1.73;;;;;;;9.40;67.15;99056.72;5074982;28;20052;-79